Seacod — DDPW — position and weather

sailwx.info

Track history (hours):
 
Tides and Currents Weather Stations Pressure Air Temp Water Temp Dewpoint Dewpoint Depression Visibility Wind Speed Wind Dir Waves Ship Positions

Seacod

Last reported at 2015-Aug-29 03:27 UTC. Time now 2015-Sep-04 10:25 UTC.
Position N 33°53' W 009°16'.

Length 188 m; draft 10.9 m.

Type: Ship. MMSI: 218019000.

Date/timePositionNaut miles runAvg speedWind from/ knotsBaromVisibWave heightAir tempDewpointWater temp
2015-Aug-29 03:27N 33°53' W 009°16'2412.1
2015-Aug-29 01:27N 34°09' W 008°54'2412.3
2015-Aug-28 23:31N 34°24' W 008°32'1212.3
2015-Aug-28 22:33N 34°32' W 008°21'41211.8
2015-Aug-27 11:31N 36°36' W 000°17'1612.3
2015-Aug-27 10:15N 36°39' E 000°02'19212.2
2015-Aug-26 18:32N 37°16' E 003°57'1212.3
2015-Aug-26 17:33N 37°19' E 004°12'1312.3
2015-Aug-26 16:32N 37°21' E 004°28'24612.3
2015-Aug-25 20:33N 37°38' E 009°36'6510.6
2015-Aug-25 14:24N 37°31' E 010°58'910.9
2015-Aug-25 13:33N 37°29' E 011°09'1211.3
2015-Aug-25 12:30N 37°23' E 011°22'1111.7
2015-Aug-25 11:33N 37°18' E 011°35'2411.8
2015-Aug-25 09:33N 37°07' E 012°01'1111.4
2015-Aug-25 08:34N 37°04' E 012°15'3411.4
2015-Aug-25 05:34N 36°53' E 012°56'1211.7
2015-Aug-25 04:33N 36°50' E 013°10'1211.9
2015-Aug-25 03:33N 36°47' E 013°24'1212.1
2015-Aug-25 02:33N 36°43' E 013°38'1211.9
2015-Aug-25 01:33N 36°40' E 013°53'1211.9
2015-Aug-25 00:34N 36°37' E 014°07'1211.9
2015-Aug-24 23:34N 36°33' E 014°21'1211.7
2015-Aug-24 22:33N 36°30' E 014°35'1111.6
2015-Aug-24 21:34N 36°30' E 014°49'1211.7
2015-Aug-24 20:33N 36°31' E 015°04'1110.6
2015-Aug-24 19:33N 36°35' E 015°16'10 9.6
2015-Aug-24 18:33N 36°45' E 015°19'1211.6
2015-Aug-24 17:33N 36°55' E 015°24'  
Track history (hours):
 
Tides and Currents Weather Stations Pressure Air Temp Water Temp Dewpoint Dewpoint Depression Visibility Wind Speed Wind Dir Waves Ship Positions

Seacod

Last reported at 2015-Aug-29 03:27 UTC. Time now 2015-Sep-04 10:25 UTC.
Position N 33°53' W 009°16'.

Length 188 m; draft 10.9 m.

Type: Ship. MMSI: 218019000.

Date/timePositionNaut miles runAvg speedWind from/ knotsBaromVisibWave heightAir tempDewpointWater temp
2015-Aug-29 03:27N 33°53' W 009°16'2412.1
2015-Aug-29 01:27N 34°09' W 008°54'2412.3
2015-Aug-28 23:31N 34°24' W 008°32'1212.3
2015-Aug-28 22:33N 34°32' W 008°21'41211.8
2015-Aug-27 11:31N 36°36' W 000°17'1612.3
2015-Aug-27 10:15N 36°39' E 000°02'19212.2
2015-Aug-26 18:32N 37°16' E 003°57'1212.3
2015-Aug-26 17:33N 37°19' E 004°12'1312.3
2015-Aug-26 16:32N 37°21' E 004°28'24612.3
2015-Aug-25 20:33N 37°38' E 009°36'6510.6
2015-Aug-25 14:24N 37°31' E 010°58'910.9
2015-Aug-25 13:33N 37°29' E 011°09'1211.3
2015-Aug-25 12:30N 37°23' E 011°22'1111.7
2015-Aug-25 11:33N 37°18' E 011°35'2411.8
2015-Aug-25 09:33N 37°07' E 012°01'1111.4
2015-Aug-25 08:34N 37°04' E 012°15'3411.4
2015-Aug-25 05:34N 36°53' E 012°56'1211.7
2015-Aug-25 04:33N 36°50' E 013°10'1211.9
2015-Aug-25 03:33N 36°47' E 013°24'1212.1
2015-Aug-25 02:33N 36°43' E 013°38'1211.9
2015-Aug-25 01:33N 36°40' E 013°53'1211.9
2015-Aug-25 00:34N 36°37' E 014°07'1211.9
2015-Aug-24 23:34N 36°33' E 014°21'1211.7
2015-Aug-24 22:33N 36°30' E 014°35'1111.6
2015-Aug-24 21:34N 36°30' E 014°49'1211.7
2015-Aug-24 20:33N 36°31' E 015°04'1110.6
2015-Aug-24 19:33N 36°35' E 015°16'10 9.6
2015-Aug-24 18:33N 36°45' E 015°19'1211.6
2015-Aug-24 17:33N 36°55' E 015°24'  

Dump ship's entire track history